createdAt,value
2019-03-21T00:02:06.414Z,99778.58
2019-03-21T00:04:37.215Z,99772.43
2019-03-21T00:07:08.039Z,99773.67
2019-03-21T00:09:39.806Z,99767.73
2019-03-21T00:12:11.365Z,99763.74
2019-03-21T00:14:51.950Z,99763.80
2019-03-21T00:17:28.731Z,99767.73
2019-03-21T00:20:00.775Z,99759.32
2019-03-21T00:22:31.631Z,99757.63
2019-03-21T00:25:02.543Z,99755.67
2019-03-21T00:27:33.301Z,99753.12
2019-03-21T00:30:04.619Z,99757.02
2019-03-21T00:32:35.531Z,99756.14
2019-03-21T00:35:09.337Z,99757.23
2019-03-21T00:37:40.257Z,99753.39
2019-03-21T00:40:13.886Z,99753.89
2019-03-21T00:42:44.701Z,99753.89
2019-03-21T00:45:18.892Z,99757.64
2019-03-21T00:47:49.746Z,99748.41
2019-03-21T00:50:22.838Z,99756.42
2019-03-21T00:52:54.558Z,99755.00
2019-03-21T00:55:26.236Z,99753.77
2019-03-21T00:57:58.612Z,99756.23
2019-03-21T01:00:32.686Z,99751.46
2019-03-21T01:03:03.891Z,99751.41
2019-03-21T01:05:34.783Z,99748.81
2019-03-21T01:08:05.831Z,99750.19
2019-03-21T01:10:36.999Z,99750.23
2019-03-21T01:13:08.008Z,99749.31
2019-03-21T01:15:38.841Z,99752.02
2019-03-21T01:18:09.635Z,99749.36
2019-03-21T01:20:40.761Z,99746.77
2019-03-21T01:23:11.483Z,99747.83
2019-03-21T01:25:48.025Z,99739.39
2019-03-21T01:28:19.705Z,99744.98
2019-03-21T01:30:50.421Z,99740.91
2019-03-21T01:33:21.482Z,99737.95
2019-03-21T01:35:55.026Z,99732.20
2019-03-21T01:38:25.820Z,99737.13
2019-03-21T01:40:58.102Z,99733.05
2019-03-21T01:43:30.167Z,99726.07
2019-03-21T01:46:01.284Z,99725.81
2019-03-21T01:48:35.217Z,99730.39
2019-03-21T01:51:06.191Z,99723.76
2019-03-21T01:53:39.793Z,99729.75
2019-03-21T01:56:12.610Z,99718.70
2019-03-21T01:58:44.034Z,99715.95
2019-03-21T02:01:15.145Z,99719.77
2019-03-21T02:03:46.213Z,99725.56
2019-03-21T02:06:17.069Z,99720.56
2019-03-21T02:08:48.127Z,99726.16
2019-03-21T02:11:19.329Z,99727.67
2019-03-21T02:13:50.183Z,99722.91
2019-03-21T02:16:22.126Z,99722.19
2019-03-21T02:18:54.192Z,99720.52
2019-03-21T02:21:25.048Z,99717.13
2019-03-21T02:23:56.091Z,99714.41
2019-03-21T02:26:27.132Z,99715.28
2019-03-21T02:28:58.948Z,99713.56
2019-03-21T02:31:29.718Z,99712.25
2019-03-21T02:34:00.716Z,99716.67
2019-03-21T02:36:31.544Z,99716.23
2019-03-21T02:39:04.092Z,99713.61
2019-03-21T02:41:36.360Z,99708.81
2019-03-21T02:44:07.076Z,99712.14
2019-03-21T02:46:37.714Z,99710.81
2019-03-21T02:49:13.797Z,99710.33
2019-03-21T02:51:45.763Z,99712.48
2019-03-21T02:54:19.546Z,99714.83
2019-03-21T02:56:53.896Z,99703.59
2019-03-21T02:59:24.992Z,99712.72
2019-03-21T03:01:55.932Z,99709.27
2019-03-21T03:04:26.979Z,99711.42
2019-03-21T03:07:01.348Z,99713.63
2019-03-21T03:09:32.503Z,99713.32
2019-03-21T03:12:03.653Z,99708.36
2019-03-21T03:14:34.911Z,99710.17
2019-03-21T03:17:06.145Z,99708.73
2019-03-21T03:19:37.858Z,99705.59
2019-03-21T03:22:08.967Z,99709.98
2019-03-21T03:24:40.266Z,99707.82
2019-03-21T03:27:11.098Z,99706.38
2019-03-21T03:29:42.092Z,99704.72
2019-03-21T03:32:12.973Z,99707.89
2019-03-21T03:34:46.262Z,99708.91
2019-03-21T03:37:17.222Z,99700.66
2019-03-21T03:39:48.142Z,99705.80
2019-03-21T03:42:19.145Z,99701.30
2019-03-21T03:44:53.151Z,99706.97
2019-03-21T03:47:24.082Z,99709.62
2019-03-21T03:49:56.225Z,99706.97
2019-03-21T03:52:27.061Z,99706.31
2019-03-21T03:54:58.916Z,99708.78
2019-03-21T03:57:32.991Z,99702.66
2019-03-21T04:00:08.184Z,99703.00
2019-03-21T04:02:39.114Z,99705.61
2019-03-21T04:05:11.366Z,99705.83
2019-03-21T04:07:44.345Z,99706.20
2019-03-21T04:10:21.148Z,99702.75
2019-03-21T04:12:52.384Z,99711.00
2019-03-21T04:15:23.421Z,99701.45
2019-03-21T04:17:57.019Z,99706.09
2019-03-21T04:20:29.898Z,99703.81
2019-03-21T04:23:02.276Z,99702.80
2019-03-21T04:25:37.402Z,99698.13
2019-03-21T04:28:08.404Z,99703.42
2019-03-21T04:30:39.487Z,99707.42
2019-03-21T04:33:10.539Z,99697.05
2019-03-21T04:35:41.563Z,99702.34
2019-03-21T04:38:12.705Z,99696.98
2019-03-21T04:40:43.823Z,99691.72
2019-03-21T04:43:16.050Z,99684.45
2019-03-21T04:45:46.825Z,99683.49
2019-03-21T04:48:17.597Z,99674.05
2019-03-21T04:50:48.651Z,99672.44
2019-03-21T04:53:19.673Z,99673.77
2019-03-21T04:55:50.731Z,99669.14
2019-03-21T04:58:21.671Z,99676.44
2019-03-21T05:00:52.752Z,99667.67
2019-03-21T05:03:24.806Z,99671.69
2019-03-21T05:05:55.669Z,99670.43
2019-03-21T05:08:26.838Z,99673.88
2019-03-21T05:10:57.735Z,99672.22
2019-03-21T05:13:30.219Z,99674.84
2019-03-21T05:16:01.202Z,99674.72
2019-03-21T05:18:35.435Z,99672.71
2019-03-21T05:21:07.544Z,99676.21
2019-03-21T05:23:38.531Z,99679.80
2019-03-21T05:26:12.690Z,99677.47
2019-03-21T05:28:43.743Z,99679.16
2019-03-21T05:31:23.000Z,99679.02
2019-03-21T05:33:53.714Z,99679.80
2019-03-21T05:36:24.741Z,99682.55
2019-03-21T05:38:58.561Z,99683.36
2019-03-21T05:41:29.775Z,99688.03
2019-03-21T05:44:04.956Z,99684.72
2019-03-21T05:46:36.102Z,99681.36
2019-03-21T05:49:06.984Z,99686.61
2019-03-21T05:51:38.185Z,99684.63
2019-03-21T05:54:11.145Z,99692.31
2019-03-21T05:56:42.045Z,99694.59
2019-03-21T05:59:14.772Z,99690.58
2019-03-21T06:01:45.786Z,99692.98
2019-03-21T06:04:16.884Z,99701.30
2019-03-21T06:06:52.337Z,99701.20
2019-03-21T06:09:23.251Z,99709.50
2019-03-21T06:11:56.928Z,99701.05
2019-03-21T06:14:28.504Z,99708.92
2019-03-21T06:16:59.591Z,99710.85
2019-03-21T06:19:51.878Z,99712.56
2019-03-21T06:22:46.466Z,99712.45
2019-03-21T06:25:44.784Z,99716.25
2019-03-21T06:28:15.823Z,99714.69
2019-03-21T06:30:49.792Z,99707.34
2019-03-21T06:33:20.647Z,99715.20
2019-03-21T06:35:53.005Z,99712.78
2019-03-21T06:38:23.784Z,99723.25
2019-03-21T06:40:54.698Z,99722.82
2019-03-21T06:43:25.593Z,99724.23
2019-03-21T06:45:59.112Z,99728.57
2019-03-21T06:48:29.976Z,99734.16
2019-03-21T06:51:01.305Z,99728.28
2019-03-21T06:53:32.304Z,99737.66
2019-03-21T06:56:04.408Z,99729.80
2019-03-21T06:58:35.188Z,99737.80
2019-03-21T07:01:06.218Z,99743.97
2019-03-21T07:03:37.078Z,99742.42
2019-03-21T07:06:08.093Z,99745.38
2019-03-21T07:08:39.368Z,99741.37
2019-03-21T07:11:10.363Z,99733.79
2019-03-21T07:13:41.191Z,99740.06
2019-03-21T07:16:12.064Z,99740.09
2019-03-21T07:18:43.324Z,99744.48
2019-03-21T07:21:16.920Z,99737.73
2019-03-21T07:23:49.978Z,99738.05
2019-03-21T07:26:25.095Z,99743.28
2019-03-21T07:28:56.417Z,99738.19
2019-03-21T07:31:27.463Z,99734.03
2019-03-21T07:33:58.261Z,99736.67
2019-03-21T07:36:30.844Z,99732.33
2019-03-21T07:39:01.664Z,99725.13
2019-03-21T07:41:33.397Z,99735.06
2019-03-21T07:44:04.446Z,99728.37
2019-03-21T07:46:35.458Z,99723.94
2019-03-21T07:49:06.445Z,99730.94
2019-03-21T07:51:38.202Z,99731.41
2019-03-21T07:54:09.119Z,99732.74
2019-03-21T07:56:40.199Z,99725.91
2019-03-21T07:59:14.583Z,99719.75
2019-03-21T08:01:45.756Z,99724.13
2019-03-21T08:04:16.648Z,99721.84
2019-03-21T08:06:47.934Z,99714.59
2019-03-21T08:09:19.233Z,99716.19
2019-03-21T08:11:50.414Z,99716.19
2019-03-21T08:14:22.679Z,99716.78
2019-03-21T08:16:53.570Z,99712.74
2019-03-21T08:19:24.545Z,99712.73
2019-03-21T08:21:55.494Z,99712.68
2019-03-21T08:24:26.484Z,99712.61
2019-03-21T08:26:57.762Z,99708.38
2019-03-21T08:29:28.628Z,99713.88
2019-03-21T08:31:59.636Z,99714.96
2019-03-21T08:34:30.889Z,99712.61
2019-03-21T08:37:01.755Z,99705.13
2019-03-21T08:39:32.637Z,99702.74
2019-03-21T08:42:03.679Z,99698.42
2019-03-21T08:44:34.477Z,99699.20
2019-03-21T08:47:09.107Z,99694.45
2019-03-21T08:49:41.629Z,99694.45
2019-03-21T08:52:12.913Z,99692.39
2019-03-21T08:54:48.265Z,99692.06
2019-03-21T08:57:19.167Z,99691.50
2019-03-21T08:59:50.550Z,99690.05
2019-03-21T09:02:22.874Z,99693.19
2019-03-21T09:04:54.148Z,99694.25
2019-03-21T09:07:28.134Z,99688.95
2019-03-21T09:10:00.413Z,99697.40
2019-03-21T09:12:32.349Z,99686.23
2019-03-21T09:15:08.019Z,99686.23
2019-03-21T09:17:38.470Z,99694.33
2019-03-21T09:20:15.474Z,99699.24
2019-03-21T09:22:46.286Z,99694.64
2019-03-21T09:25:18.956Z,99687.34
2019-03-21T09:28:02.183Z,99688.48
2019-03-21T09:30:28.727Z,99680.45
2019-03-21T09:32:59.568Z,99675.41
2019-03-21T09:35:30.418Z,99678.19
2019-03-21T09:38:01.304Z,99681.47
2019-03-21T09:40:35.308Z,99680.11
2019-03-21T09:43:06.456Z,99676.28
2019-03-21T09:45:37.310Z,99675.65
2019-03-21T09:48:09.973Z,99668.73
2019-03-21T09:50:41.253Z,99672.20
2019-03-21T09:53:12.344Z,99675.19
2019-03-21T09:55:46.374Z,99673.18
2019-03-21T09:58:17.089Z,99671.04
2019-03-21T10:00:47.776Z,99672.58
2019-03-21T10:03:19.112Z,99669.30
2019-03-21T10:05:50.371Z,99671.47
2019-03-21T10:08:24.011Z,99664.91
2019-03-21T10:10:57.314Z,99658.89
2019-03-21T10:13:29.666Z,99668.63
2019-03-21T10:16:00.639Z,99661.38
2019-03-21T10:18:31.660Z,99647.15
2019-03-21T10:21:02.534Z,99650.48
2019-03-21T10:23:35.118Z,99650.48
2019-03-21T10:26:06.299Z,99637.33
2019-03-21T10:28:40.714Z,99641.55
2019-03-21T10:31:11.531Z,99639.80
2019-03-21T10:33:42.641Z,99640.95
2019-03-21T10:36:16.146Z,99643.59
2019-03-21T10:38:49.021Z,99628.45
2019-03-21T10:41:21.020Z,99639.62
2019-03-21T10:43:52.118Z,99626.66
2019-03-21T10:46:26.433Z,99623.75
2019-03-21T10:48:57.184Z,99617.12
2019-03-21T10:51:28.134Z,99638.84
2019-03-21T10:54:02.085Z,99633.79
2019-03-21T10:56:32.918Z,99620.50
2019-03-21T10:59:04.073Z,99632.31
2019-03-21T11:01:35.495Z,99625.09
2019-03-21T11:04:08.853Z,99627.59
2019-03-21T11:06:39.938Z,99618.08
2019-03-21T11:09:11.209Z,99626.94
2019-03-21T11:11:42.119Z,99606.53
2019-03-21T11:14:13.226Z,99619.28
2019-03-21T11:16:45.691Z,99617.71
2019-03-21T11:19:19.090Z,99611.60
2019-03-21T11:21:50.047Z,99599.75
2019-03-21T11:24:21.207Z,99610.84
2019-03-21T11:26:52.127Z,99601.33
2019-03-21T11:29:23.111Z,99602.28
2019-03-21T11:31:53.825Z,99606.43
2019-03-21T11:34:29.224Z,99594.11
2019-03-21T11:37:00.659Z,99587.63
2019-03-21T11:39:32.847Z,99583.73
2019-03-21T11:42:04.892Z,99571.38
2019-03-21T11:44:36.048Z,99581.67
2019-03-21T11:47:06.769Z,99583.80
2019-03-21T11:49:37.541Z,99581.91
2019-03-21T11:52:17.785Z,99574.72
2019-03-21T11:54:41.037Z,99575.89
2019-03-21T11:57:11.863Z,99569.53
2019-03-21T11:59:51.542Z,99559.13
2019-03-21T12:02:26.555Z,99549.95
2019-03-21T12:04:51.181Z,99563.25
2019-03-21T12:07:22.141Z,99550.75
2019-03-21T12:09:53.195Z,99551.18
2019-03-21T12:12:24.241Z,99540.55
2019-03-21T12:14:56.071Z,99544.76
2019-03-21T12:17:28.040Z,99518.52
2019-03-21T12:19:59.220Z,99532.30
2019-03-21T12:22:30.638Z,99537.40
2019-03-21T12:25:02.752Z,99534.00
2019-03-21T12:27:33.991Z,99524.48
2019-03-21T12:30:06.871Z,99517.06
2019-03-21T12:32:38.500Z,99513.28
2019-03-21T12:35:09.356Z,99514.41
2019-03-21T12:37:40.172Z,99513.44
2019-03-21T12:40:11.121Z,99510.21
2019-03-21T12:42:42.675Z,99505.94
2019-03-21T12:45:13.553Z,99506.59
2019-03-21T12:47:44.409Z,99499.47
2019-03-21T12:50:15.399Z,99501.23
2019-03-21T12:52:46.399Z,99498.48
2019-03-21T12:55:19.964Z,99500.33
2019-03-21T12:57:50.805Z,99494.83
2019-03-21T13:00:33.246Z,99487.23
2019-03-21T13:03:04.370Z,99472.30
2019-03-21T13:05:35.337Z,99484.26
2019-03-21T13:08:06.611Z,99474.16
2019-03-21T13:10:37.475Z,99470.13
2019-03-21T13:13:08.767Z,99472.20
2019-03-21T13:15:39.864Z,99460.74
2019-03-21T13:18:13.365Z,99456.45
2019-03-21T13:20:47.116Z,99451.31
2019-03-21T13:23:19.750Z,99455.48
2019-03-21T13:25:50.622Z,99452.16
2019-03-21T13:28:21.602Z,99444.74
2019-03-21T13:30:52.568Z,99447.16
2019-03-21T13:33:23.792Z,99436.80
2019-03-21T13:35:57.080Z,99448.72
2019-03-21T13:38:28.229Z,99447.34
2019-03-21T13:40:59.285Z,99433.55
2019-03-21T13:43:30.422Z,99430.44
2019-03-21T13:46:01.332Z,99435.48
2019-03-21T13:48:32.406Z,99423.86
2019-03-21T13:51:03.414Z,99424.13
2019-03-21T13:53:34.165Z,99416.14
2019-03-21T13:56:07.606Z,99413.81
2019-03-21T13:58:39.679Z,99412.39
2019-03-21T14:01:10.590Z,99408.72
2019-03-21T14:03:41.335Z,99403.98
2019-03-21T14:06:12.129Z,99403.59
2019-03-21T14:08:42.968Z,99395.91
2019-03-21T14:11:15.473Z,99401.13
2019-03-21T14:13:47.539Z,99395.47
2019-03-21T14:16:18.458Z,99400.81
2019-03-21T14:18:49.313Z,99401.94
2019-03-21T14:21:20.160Z,99401.94
2019-03-21T14:23:50.939Z,99394.47
2019-03-21T14:26:21.679Z,99391.84
2019-03-21T14:28:52.526Z,99389.97
2019-03-21T14:31:26.638Z,99385.97
2019-03-21T14:33:59.931Z,99383.90
2019-03-21T14:36:30.975Z,99383.07
2019-03-21T14:39:01.774Z,99394.31
2019-03-21T14:41:34.480Z,99382.93
2019-03-21T14:44:08.551Z,99382.93
2019-03-21T14:46:43.033Z,99383.19
2019-03-21T14:49:13.992Z,99380.59
2019-03-21T14:51:44.873Z,99380.02
2019-03-21T14:54:15.585Z,99370.11
2019-03-21T14:56:47.160Z,99375.60
2019-03-21T14:59:18.271Z,99379.27
2019-03-21T15:01:51.752Z,99370.37
2019-03-21T15:04:24.551Z,99367.30
2019-03-21T15:06:58.615Z,99370.84
2019-03-21T15:09:29.419Z,99368.12
2019-03-21T15:12:05.446Z,99370.83
2019-03-21T15:14:36.395Z,99375.25
2019-03-21T15:17:07.258Z,99375.77
2019-03-21T15:19:40.875Z,99361.96
2019-03-21T15:22:11.850Z,99360.13
2019-03-21T15:24:42.975Z,99364.23
2019-03-21T15:27:13.976Z,99352.55
2019-03-21T15:29:45.152Z,99357.10
2019-03-21T15:32:18.573Z,99353.42
2019-03-21T15:34:53.924Z,99359.70
2019-03-21T15:37:27.796Z,99355.13
2019-03-21T15:39:58.749Z,99354.02
2019-03-21T15:42:29.710Z,99352.09
2019-03-21T15:45:15.483Z,99352.45
2019-03-21T15:47:33.394Z,99347.41
2019-03-21T15:50:04.397Z,99351.05
2019-03-21T15:52:35.676Z,99352.17
2019-03-21T15:55:08.534Z,99356.51
2019-03-21T15:57:42.629Z,99360.81
2019-03-21T16:00:17.826Z,99357.41
2019-03-21T16:02:48.848Z,99362.78
2019-03-21T16:05:19.840Z,99361.09
2019-03-21T16:07:50.763Z,99360.81
2019-03-21T16:10:23.406Z,99360.11
2019-03-21T16:12:54.634Z,99356.52
2019-03-21T16:15:25.863Z,99360.39
2019-03-21T16:17:59.149Z,99359.39
2019-03-21T16:20:29.931Z,99361.66
2019-03-21T16:23:01.225Z,99354.53
2019-03-21T16:25:32.323Z,99360.80
2019-03-21T16:28:03.191Z,99364.94
2019-03-21T16:30:34.669Z,99369.61
2019-03-21T16:33:05.766Z,99365.60
2019-03-21T16:35:39.467Z,99364.58
2019-03-21T16:38:10.400Z,99358.61
2019-03-21T16:40:41.274Z,99359.63
2019-03-21T16:43:13.692Z,99360.77
2019-03-21T16:45:44.753Z,99359.67
2019-03-21T16:48:15.839Z,99366.86
2019-03-21T16:50:47.021Z,99360.56
2019-03-21T16:53:18.304Z,99368.46
2019-03-21T16:55:49.502Z,99373.59
2019-03-21T16:58:21.545Z,99371.20
2019-03-21T17:00:52.414Z,99371.23
2019-03-21T17:03:23.253Z,99377.00
2019-03-21T17:05:58.775Z,99379.44
2019-03-21T17:08:29.733Z,99375.16
2019-03-21T17:11:03.539Z,99380.59
2019-03-21T17:13:34.472Z,99380.00
2019-03-21T17:16:06.167Z,99380.64
2019-03-21T17:18:37.189Z,99377.77
2019-03-21T17:21:09.520Z,99384.67
2019-03-21T17:23:41.043Z,99389.95
2019-03-21T17:26:12.114Z,99391.42
2019-03-21T17:28:44.960Z,99389.36
2019-03-21T17:31:19.531Z,99390.81
2019-03-21T17:33:50.553Z,99382.70
2019-03-21T17:36:21.354Z,99385.81
2019-03-21T17:38:54.362Z,99392.94
2019-03-21T17:41:25.192Z,99389.83
2019-03-21T17:43:57.284Z,99389.08
2019-03-21T17:46:33.686Z,99393.45
2019-03-21T17:49:06.438Z,99392.38
2019-03-21T17:51:37.605Z,99394.89
2019-03-21T17:54:11.570Z,99393.29
2019-03-21T17:56:42.885Z,99398.14
2019-03-21T17:59:13.620Z,99406.83
2019-03-21T18:01:44.605Z,99403.31
2019-03-21T18:04:15.461Z,99404.39
2019-03-21T18:06:46.692Z,99406.28
2019-03-21T18:09:19.305Z,99408.18
2019-03-21T18:11:49.986Z,99415.44
2019-03-21T18:14:22.013Z,99419.73
2019-03-21T18:16:53.477Z,99416.94
2019-03-21T18:19:24.342Z,99425.86
2019-03-21T18:22:00.947Z,99430.70
2019-03-21T18:24:34.063Z,99432.74
2019-03-21T18:27:04.870Z,99436.94
2019-03-21T18:29:35.951Z,99435.78
2019-03-21T18:32:06.862Z,99437.08
2019-03-21T18:34:40.068Z,99440.44
2019-03-21T18:37:12.455Z,99447.11
2019-03-21T18:39:43.349Z,99448.95
2019-03-21T18:42:14.123Z,99451.75
2019-03-21T18:44:47.058Z,99448.67
2019-03-21T18:47:18.218Z,99454.71
2019-03-21T18:49:49.104Z,99450.23
2019-03-21T18:52:20.345Z,99457.47
2019-03-21T18:54:51.181Z,99461.61
2019-03-21T18:57:22.129Z,99457.98
2019-03-21T18:59:54.387Z,99462.77
2019-03-21T19:02:25.344Z,99471.60
2019-03-21T19:04:56.234Z,99471.34
2019-03-21T19:07:29.660Z,99465.83
2019-03-21T19:10:00.604Z,99465.58
2019-03-21T19:12:34.342Z,99466.27
2019-03-21T19:15:09.894Z,99468.34
2019-03-21T19:17:40.840Z,99467.60
2019-03-21T19:20:12.168Z,99469.06
2019-03-21T19:22:46.358Z,99467.89
2019-03-21T19:25:19.433Z,99469.05
2019-03-21T19:27:52.957Z,99470.52
2019-03-21T19:30:24.420Z,99470.05
2019-03-21T19:32:55.625Z,99467.63
2019-03-21T19:35:28.963Z,99472.34
2019-03-21T19:38:00.003Z,99468.84
2019-03-21T19:40:31.293Z,99468.94
2019-03-21T19:43:02.631Z,99469.33
2019-03-21T19:45:33.770Z,99474.30
2019-03-21T19:48:04.947Z,99474.16
2019-03-21T19:50:35.858Z,99480.44
2019-03-21T19:53:07.078Z,99482.03
2019-03-21T19:55:38.175Z,99481.63
2019-03-21T19:58:09.160Z,99478.84
2019-03-21T20:00:41.068Z,99479.38
2019-03-21T20:03:14.009Z,99485.08
2019-03-21T20:05:45.287Z,99482.81
2019-03-21T20:08:16.143Z,99485.60
2019-03-21T20:10:49.974Z,99489.59
2019-03-21T20:13:21.244Z,99494.31
2019-03-21T20:15:52.693Z,99487.19
2019-03-21T20:18:26.074Z,99482.47
2019-03-21T20:20:58.849Z,99496.22
2019-03-21T20:23:30.153Z,99480.73
2019-03-21T20:26:01.187Z,99480.73
2019-03-21T20:28:32.535Z,99481.27
2019-03-21T20:31:03.501Z,99484.04
2019-03-21T20:33:35.476Z,99484.64
2019-03-21T20:36:06.808Z,99487.87
2019-03-21T20:38:38.005Z,99486.77
2019-03-21T20:41:09.206Z,99490.23
2019-03-21T20:43:41.354Z,99489.64
2019-03-21T20:46:12.248Z,99494.48
2019-03-21T20:48:40.805Z,99491.21
2019-03-21T20:51:14.352Z,99487.44
2019-03-21T20:53:46.695Z,99495.61
2019-03-21T20:56:17.536Z,99492.19
2019-03-21T20:58:50.500Z,99493.52
2019-03-21T21:01:21.438Z,99491.73
2019-03-21T21:03:53.309Z,99486.90
2019-03-21T21:06:24.334Z,99485.31
2019-03-21T21:08:55.805Z,99494.83
2019-03-21T21:11:27.140Z,99491.92
2019-03-21T21:13:58.117Z,99485.20
2019-03-21T21:16:31.911Z,99478.52
2019-03-21T21:19:02.868Z,99477.02
2019-03-21T21:21:34.049Z,99471.30
2019-03-21T21:24:05.315Z,99469.50
2019-03-21T21:26:36.817Z,99479.86
2019-03-21T21:29:08.293Z,99475.56
2019-03-21T21:31:39.447Z,99467.87
2019-03-21T21:34:10.769Z,99472.54
2019-03-21T21:36:42.336Z,99476.09
2019-03-21T21:39:16.877Z,99476.14
2019-03-21T21:41:50.406Z,99477.84
2019-03-21T21:44:21.546Z,99483.05
2019-03-21T21:46:52.650Z,99482.64
2019-03-21T21:49:25.491Z,99489.41
2019-03-21T21:51:56.556Z,99482.69
2019-03-21T21:54:28.956Z,99482.63
2019-03-21T21:57:00.141Z,99477.05
2019-03-21T21:59:31.182Z,99475.30
2019-03-21T22:02:05.339Z,99477.05
2019-03-21T22:04:41.391Z,99479.30
2019-03-21T22:07:11.364Z,99482.98
2019-03-21T22:09:43.662Z,99486.73
2019-03-21T22:12:16.767Z,99479.84
2019-03-21T22:14:47.926Z,99485.47
2019-03-21T22:17:20.091Z,99487.98
2019-03-21T22:19:52.473Z,99493.48
2019-03-21T22:22:23.599Z,99486.81
2019-03-21T22:24:54.431Z,99483.13
2019-03-21T22:27:27.735Z,99488.99
2019-03-21T22:29:58.836Z,99490.45
2019-03-21T22:32:29.929Z,99490.19
2019-03-21T22:35:00.758Z,99499.45
2019-03-21T22:37:32.511Z,99487.57
2019-03-21T22:40:03.470Z,99488.80
2019-03-21T22:42:34.575Z,99487.78
2019-03-21T22:45:06.124Z,99492.95
2019-03-21T22:47:37.104Z,99484.42
2019-03-21T22:50:11.225Z,99480.52
2019-03-21T22:52:42.456Z,99484.64
2019-03-21T22:55:13.424Z,99475.70
2019-03-21T22:57:44.583Z,99472.65
2019-03-21T23:00:20.324Z,99478.72
2019-03-21T23:02:55.315Z,99475.94
2019-03-21T23:05:28.200Z,99463.72
2019-03-21T23:07:59.060Z,99465.80
2019-03-21T23:10:29.829Z,99463.06
2019-03-21T23:13:00.915Z,99462.95
2019-03-21T23:15:31.962Z,99463.06
2019-03-21T23:18:04.984Z,99462.95
2019-03-21T23:20:36.273Z,99457.22
2019-03-21T23:23:07.210Z,99460.50
2019-03-21T23:25:39.658Z,99461.23
2019-03-21T23:28:10.487Z,99462.67
2019-03-21T23:30:42.671Z,99456.50
2019-03-21T23:33:13.589Z,99456.00
2019-03-21T23:35:44.766Z,99458.28
2019-03-21T23:38:15.981Z,99464.44
2019-03-21T23:40:47.090Z,99466.46
2019-03-21T23:43:18.624Z,99458.79
2019-03-21T23:45:49.475Z,99458.68
2019-03-21T23:48:20.623Z,99462.46
2019-03-21T23:50:51.485Z,99458.06
2019-03-21T23:53:22.386Z,99458.17
2019-03-21T23:55:53.247Z,99457.75
2019-03-21T23:58:24.377Z,99452.95
